Time;durP1;ratioP1;P1;durP2;ratioP2;P2;SDS_P1;SDS_P2;PMS_P1;PMS_P2;Temp;Humidity;BMP_temperature;BMP_pressure;BME280_temperature;BME280_humidity;BME280_pressure;Samples;Min_cycle;Max_cycle;Signal;HPM_P1;HPM_P2
2022/09/18 00:01:00;;;;;;;;;;;24.30;48.10;;;;;;1569618;74;732;-56
2022/09/18 00:03:02;;;;;;;;;;;24.40;48.10;;;;;;1565284;74;779;-58
2022/09/18 00:05:04;;;;;;;;;;;24.30;48.10;;;;;;1569543;74;1136;-59
2022/09/18 00:07:06;;;;;;;;;;;24.30;48.10;;;;;;1566823;74;1587;-59
2022/09/18 00:09:09;;;;;;;;;;;24.40;48.00;;;;;;1570219;74;1954;-58
2022/09/18 00:11:12;;;;;;;;;;;24.40;48.00;;;;;;1568382;74;764;-56
2022/09/18 00:13:14;;;;;;;;;;;24.40;48.00;;;;;;1567675;74;760;-58
2022/09/18 00:15:16;;;;;;;;;;;24.40;48.10;;;;;;1569283;74;1152;-60
2022/09/18 00:17:18;;;;;;;;;;;24.40;48.00;;;;;;1568471;75;664;-59
2022/09/18 00:19:20;;;;;;;;;;;24.40;48.00;;;;;;1568476;74;753;-56
2022/09/18 00:21:23;;;;;;;;;;;24.40;47.90;;;;;;1569127;74;1520;-56
2022/09/18 00:23:25;;;;;;;;;;;24.30;48.00;;;;;;1553799;74;750;-58
2022/09/18 00:25:27;;;;;;;;;;;24.40;47.90;;;;;;1568053;75;1133;-59
2022/09/18 00:27:29;;;;;;;;;;;24.40;47.90;;;;;;1567425;74;774;-59
2022/09/18 00:29:30;;;;;;;;;;;24.40;47.90;;;;;;1568391;75;1950;-58
2022/09/18 00:31:34;;;;;;;;;;;24.30;47.90;;;;;;1567931;74;747;-56
2022/09/18 00:33:36;;;;;;;;;;;24.40;47.80;;;;;;1568058;75;764;-59
2022/09/18 00:35:40;;;;;;;;;;;24.40;47.90;;;;;;1566456;75;1534;-60
2022/09/18 00:37:41;;;;;;;;;;;24.40;47.90;;;;;;1570359;74;1822;-60
2022/09/18 00:39:43;;;;;;;;;;;24.40;47.90;;;;;;1568388;74;850;-57
2022/09/18 00:41:45;;;;;;;;;;;24.40;47.90;;;;;;1567731;74;720;-56
2022/09/18 00:43:47;;;;;;;;;;;24.40;47.90;;;;;;1558188;75;1152;-59
2022/09/18 00:45:56;;;;;;;;;;;24.30;47.90;;;;;;1573061;74;729;-60
2022/09/18 00:47:58;;;;;;;;;;;24.40;48.00;;;;;;1564528;74;749;-57
2022/09/18 00:50:07;;;;;;;;;;;24.40;48.00;;;;;;1568429;74;1934;-58
2022/09/18 00:52:09;;;;;;;;;;;24.40;48.00;;;;;;1568876;74;789;-59
2022/09/18 00:54:18;;;;;;;;;;;24.40;48.00;;;;;;1567467;74;1132;-57
2022/09/18 00:56:20;;;;;;;;;;;24.40;48.00;;;;;;1566242;75;1804;-59
2022/09/18 00:58:22;;;;;;;;;;;24.40;48.00;;;;;;1563089;74;664;-58
2022/09/18 01:00:24;;;;;;;;;;;24.30;48.00;;;;;;1568044;74;767;-60
2022/09/18 01:02:26;;;;;;;;;;;24.30;48.10;;;;;;1567515;74;732;-59
2022/09/18 01:04:28;;;;;;;;;;;24.30;48.10;;;;;;1568957;74;1585;-58
2022/09/18 01:06:31;;;;;;;;;;;24.40;47.90;;;;;;1566987;74;792;-57
2022/09/18 01:08:43;;;;;;;;;;;24.40;48.00;;;;;;1569939;74;724;-59
2022/09/18 01:10:47;;;;;;;;;;;24.40;48.10;;;;;;1570105;74;1144;-59
2022/09/18 01:13:00;;;;;;;;;;;24.40;48.00;;;;;;1568822;74;790;-57
2022/09/18 01:15:10;;;;;;;;;;;24.40;47.90;;;;;;1566330;74;1662;-55
2022/09/18 01:17:14;;;;;;;;;;;24.40;47.90;;;;;;1568218;74;1539;-60
2022/09/18 01:19:34;;;;;;;;;;;24.40;48.10;;;;;;1563641;74;772;-60
2022/09/18 01:21:40;;;;;;;;;;;24.40;48.00;;;;;;1567904;74;661;-57
2022/09/18 01:23:53;;;;;;;;;;;24.40;48.10;;;;;;1556910;74;1157;-58
2022/09/18 01:26:05;;;;;;;;;;;24.30;48.10;;;;;;1569110;74;2049;-58
2022/09/18 01:28:09;;;;;;;;;;;24.30;48.20;;;;;;1567430;74;1970;-55
2022/09/18 01:30:11;;;;;;;;;;;24.30;48.20;;;;;;1559949;74;1946;-59
2022/09/18 01:32:20;;;;;;;;;;;24.20;48.20;;;;;;1571275;75;1568;-58
2022/09/18 01:34:38;;;;;;;;;;;24.30;48.30;;;;;;1568633;74;1201;-55
2022/09/18 01:36:41;;;;;;;;;;;24.30;48.30;;;;;;1559143;74;1677;-57
2022/09/18 01:38:44;;;;;;;;;;;24.30;48.30;;;;;;1570370;74;681;-60
2022/09/18 01:41:00;;;;;;;;;;;24.30;48.20;;;;;;1559592;75;732;-57
2022/09/18 01:43:02;;;;;;;;;;;24.40;48.20;;;;;;1563759;74;720;-59
2022/09/18 01:45:06;;;;;;;;;;;24.40;48.10;;;;;;1569219;74;1593;-58
2022/09/18 01:47:08;;;;;;;;;;;24.40;48.10;;;;;;1571335;74;749;-59
2022/09/18 01:49:14;;;;;;;;;;;24.30;48.10;;;;;;1567938;74;1915;-58
2022/09/18 01:51:20;;;;;;;;;;;24.40;48.10;;;;;;1567779;74;733;-58
2022/09/18 01:53:23;;;;;;;;;;;24.30;48.10;;;;;;1575641;74;660;-60
2022/09/18 01:55:26;;;;;;;;;;;24.40;48.10;;;;;;1570897;74;1091;-54
2022/09/18 01:57:29;;;;;;;;;;;24.40;48.10;;;;;;1567148;74;755;-56
2022/09/18 01:59:33;;;;;;;;;;;24.40;48.00;;;;;;1563764;74;1594;-58
2022/09/18 02:01:35;;;;;;;;;;;24.30;48.00;;;;;;1568376;74;722;-59
2022/09/18 02:03:47;;;;;;;;;;;24.30;48.10;;;;;;1568125;74;670;-59
2022/09/18 02:05:50;;;;;;;;;;;24.40;48.10;;;;;;1568217;74;924;-55
2022/09/18 02:08:00;;;;;;;;;;;24.30;48.10;;;;;;1566745;74;664;-58
2022/09/18 02:10:02;;;;;;;;;;;24.40;48.10;;;;;;1569282;74;2093;-58
2022/09/18 02:12:04;;;;;;;;;;;24.30;48.10;;;;;;1568788;74;716;-59
2022/09/18 02:14:16;;;;;;;;;;;24.40;48.10;;;;;;1569010;75;1550;-60
2022/09/18 02:16:19;;;;;;;;;;;24.30;48.20;;;;;;1568883;74;714;-60
2022/09/18 02:18:23;;;;;;;;;;;24.30;48.10;;;;;;1567658;74;1884;-58
2022/09/18 02:20:26;;;;;;;;;;;24.30;48.10;;;;;;1567553;74;753;-60
2022/09/18 02:22:29;;;;;;;;;;;24.30;48.10;;;;;;1569360;74;778;-58
2022/09/18 02:24:32;;;;;;;;;;;24.30;48.10;;;;;;1569131;74;1173;-60
2022/09/18 02:26:34;;;;;;;;;;;24.40;48.10;;;;;;1568589;74;714;-56
2022/09/18 02:28:36;;;;;;;;;;;24.30;48.10;;;;;;1561441;74;1572;-60
2022/09/18 02:30:38;;;;;;;;;;;24.30;48.10;;;;;;1569717;75;1901;-60
2022/09/18 02:32:40;;;;;;;;;;;24.30;48.10;;;;;;1566068;74;776;-59
2022/09/18 02:34:41;;;;;;;;;;;24.30;48.10;;;;;;1566428;74;1215;-59
2022/09/18 02:36:48;;;;;;;;;;;24.30;48.10;;;;;;1565392;74;813;-59
2022/09/18 02:38:55;;;;;;;;;;;24.40;48.10;;;;;;1566837;75;2114;-60
2022/09/18 02:41:01;;;;;;;;;;;24.30;48.10;;;;;;1561293;75;1942;-60
2022/09/18 02:43:14;;;;;;;;;;;24.30;48.10;;;;;;1540067;75;1511;-55
2022/09/18 02:45:23;;;;;;;;;;;24.40;48.00;;;;;;1568280;74;2034;-59
2022/09/18 02:47:39;;;;;;;;;;;24.30;48.10;;;;;;1565180;74;1941;-59
2022/09/18 02:49:45;;;;;;;;;;;24.30;48.10;;;;;;1570355;75;1926;-59
2022/09/18 02:51:49;;;;;;;;;;;24.30;48.10;;;;;;1554241;74;1964;-60
2022/09/18 02:53:56;;;;;;;;;;;24.30;48.10;;;;;;1566892;74;1840;-60
2022/09/18 02:56:02;;;;;;;;;;;24.30;48.00;;;;;;1574716;74;1589;-58
2022/09/18 02:58:05;;;;;;;;;;;24.30;48.00;;;;;;1568039;74;803;-60
2022/09/18 03:00:11;;;;;;;;;;;24.30;48.00;;;;;;1561158;74;1702;-57
2022/09/18 03:02:11;;;;;;;;;;;24.30;48.00;;;;;;1567179;74;1627;-59
2022/09/18 03:04:14;;;;;;;;;;;24.30;48.00;;;;;;1565715;75;1154;-57
2022/09/18 03:06:15;;;;;;;;;;;24.30;47.90;;;;;;1566434;74;825;-60
2022/09/18 03:08:18;;;;;;;;;;;24.30;47.80;;;;;;1571592;74;793;-59
2022/09/18 03:10:20;;;;;;;;;;;24.40;47.80;;;;;;1567733;74;1916;-58
2022/09/18 03:12:21;;;;;;;;;;;24.40;47.80;;;;;;1568402;74;664;-57
2022/09/18 03:14:23;;;;;;;;;;;24.40;47.80;;;;;;1567707;74;1156;-55
2022/09/18 03:16:25;;;;;;;;;;;24.30;47.90;;;;;;1567344;74;826;-60
2022/09/18 03:18:27;;;;;;;;;;;24.40;47.90;;;;;;1567104;74;752;-60
2022/09/18 03:20:29;;;;;;;;;;;24.30;47.90;;;;;;1569452;74;775;-60
2022/09/18 03:22:31;;;;;;;;;;;24.40;47.90;;;;;;1567847;74;784;-58
2022/09/18 03:24:33;;;;;;;;;;;24.30;47.90;;;;;;1563562;74;1511;-60
2022/09/18 03:26:36;;;;;;;;;;;24.30;47.90;;;;;;1567451;74;739;-59
2022/09/18 03:28:38;;;;;;;;;;;24.30;47.80;;;;;;1572710;74;770;-59
2022/09/18 03:30:40;;;;;;;;;;;24.30;47.90;;;;;;1561910;74;1934;-59
2022/09/18 03:32:42;;;;;;;;;;;24.20;47.90;;;;;;1571384;74;829;-57
2022/09/18 03:34:44;;;;;;;;;;;24.20;48.00;;;;;;1559042;74;1133;-59
2022/09/18 03:36:46;;;;;;;;;;;24.20;48.10;;;;;;1566428;74;801;-57
2022/09/18 03:38:47;;;;;;;;;;;24.20;48.10;;;;;;1567848;74;1535;-56
2022/09/18 03:40:49;;;;;;;;;;;24.20;48.20;;;;;;1568324;74;665;-60
2022/09/18 03:42:52;;;;;;;;;;;24.20;48.30;;;;;;1567325;74;721;-60
2022/09/18 03:44:54;;;;;;;;;;;24.10;48.30;;;;;;1567304;74;1132;-59
2022/09/18 03:46:56;;;;;;;;;;;24.10;48.30;;;;;;1566121;74;687;-60
2022/09/18 03:48:58;;;;;;;;;;;24.10;48.40;;;;;;1568246;74;798;-60
2022/09/18 03:51:00;;;;;;;;;;;24.10;48.40;;;;;;1568452;74;1926;-59
2022/09/18 03:53:02;;;;;;;;;;;24.10;48.40;;;;;;1568119;74;1683;-60
2022/09/18 03:55:04;;;;;;;;;;;24.10;48.50;;;;;;1567038;75;1120;-60
2022/09/18 03:57:06;;;;;;;;;;;24.10;48.40;;;;;;1568892;74;774;-58
2022/09/18 03:59:07;;;;;;;;;;;24.10;48.40;;;;;;1572092;74;676;-57
2022/09/18 04:01:11;;;;;;;;;;;24.10;48.40;;;;;;1568921;74;691;-56
2022/09/18 04:03:13;;;;;;;;;;;24.10;48.40;;;;;;1567311;74;638;-57
2022/09/18 04:05:15;;;;;;;;;;;24.10;48.50;;;;;;1567177;75;1151;-58
2022/09/18 04:07:17;;;;;;;;;;;24.00;48.40;;;;;;1563217;74;1526;-59
2022/09/18 04:09:19;;;;;;;;;;;24.10;48.60;;;;;;1568214;74;712;-60
2022/09/18 04:11:20;;;;;;;;;;;24.10;48.60;;;;;;1567052;74;1932;-58
2022/09/18 04:13:22;;;;;;;;;;;24.00;48.40;;;;;;1566610;74;725;-56
2022/09/18 04:15:24;;;;;;;;;;;24.10;48.60;;;;;;1568659;74;1196;-60
2022/09/18 04:17:26;;;;;;;;;;;24.00;48.50;;;;;;1567646;75;799;-60
2022/09/18 04:19:28;;;;;;;;;;;24.00;48.40;;;;;;1570060;74;759;-60
2022/09/18 04:21:31;;;;;;;;;;;24.10;48.60;;;;;;1566175;74;1694;-59
2022/09/18 04:23:33;;;;;;;;;;;24.00;48.50;;;;;;1568231;75;845;-55
2022/09/18 04:25:35;;;;;;;;;;;24.00;48.50;;;;;;1567997;74;1066;-60
2022/09/18 04:27:37;;;;;;;;;;;24.00;48.50;;;;;;1542638;75;1039;-57
2022/09/18 04:29:39;;;;;;;;;;;24.00;48.50;;;;;;1562320;74;666;-58
2022/09/18 04:31:40;;;;;;;;;;;24.00;48.50;;;;;;1560820;74;1944;-57
2022/09/18 04:33:42;;;;;;;;;;;24.00;48.50;;;;;;1567125;74;1654;-58
2022/09/18 04:35:44;;;;;;;;;;;24.00;48.40;;;;;;1565153;74;795;-59
2022/09/18 04:37:46;;;;;;;;;;;24.00;48.40;;;;;;1580638;74;806;-56
2022/09/18 04:39:48;;;;;;;;;;;24.00;48.40;;;;;;1566005;75;715;-59
2022/09/18 04:41:50;;;;;;;;;;;24.00;48.40;;;;;;1569308;75;762;-58
2022/09/18 04:43:52;;;;;;;;;;;24.10;48.40;;;;;;1560165;74;1234;-58
2022/09/18 04:45:54;;;;;;;;;;;24.00;48.30;;;;;;1564418;74;785;-57
2022/09/18 04:47:56;;;;;;;;;;;24.00;48.40;;;;;;1567963;75;1513;-60
2022/09/18 04:49:58;;;;;;;;;;;24.00;48.40;;;;;;1574036;74;1951;-58
2022/09/18 04:52:00;;;;;;;;;;;24.00;48.40;;;;;;1567959;74;795;-59
2022/09/18 04:54:02;;;;;;;;;;;24.00;48.40;;;;;;1569713;74;1156;-58
2022/09/18 04:56:04;;;;;;;;;;;24.00;48.40;;;;;;1566788;74;695;-58
2022/09/18 04:58:05;;;;;;;;;;;24.00;48.40;;;;;;1572591;74;792;-59
2022/09/18 05:00:08;;;;;;;;;;;24.00;48.40;;;;;;1567072;75;962;-60
2022/09/18 05:02:10;;;;;;;;;;;24.00;48.40;;;;;;1567496;75;1546;-55
2022/09/18 05:04:12;;;;;;;;;;;24.00;48.40;;;;;;1568433;74;1184;-59
2022/09/18 05:06:14;;;;;;;;;;;24.10;48.40;;;;;;1567895;74;754;-57
2022/09/18 05:08:16;;;;;;;;;;;24.10;48.30;;;;;;1567178;74;824;-60
2022/09/18 05:10:18;;;;;;;;;;;24.20;48.20;;;;;;1569622;74;1912;-60
2022/09/18 05:12:20;;;;;;;;;;;24.20;48.10;;;;;;1568104;74;787;-59
2022/09/18 05:14:22;;;;;;;;;;;24.20;48.10;;;;;;1569575;74;1110;-58
2022/09/18 05:16:24;;;;;;;;;;;24.20;48.10;;;;;;1567833;74;1534;-57
2022/09/18 05:18:26;;;;;;;;;;;24.20;48.10;;;;;;1568337;74;774;-57
2022/09/18 05:20:27;;;;;;;;;;;24.20;48.00;;;;;;1568273;74;781;-55
2022/09/18 05:22:30;;;;;;;;;;;24.20;47.90;;;;;;1568644;75;726;-59
2022/09/18 05:24:32;;;;;;;;;;;24.30;48.10;;;;;;1576510;72;225277;-67
2022/09/18 05:26:34;;;;;;;;;;;24.30;48.10;;;;;;1577361;74;711;-66
2022/09/18 05:28:35;;;;;;;;;;;24.20;47.90;;;;;;1574344;74;712;-68
2022/09/18 05:30:37;;;;;;;;;;;24.20;47.90;;;;;;1569873;74;1935;-66
2022/09/18 05:32:39;;;;;;;;;;;24.10;48.00;;;;;;1579641;74;785;-66
2022/09/18 05:34:41;;;;;;;;;;;24.10;48.10;;;;;;1586372;73;1171;-66
2022/09/18 05:36:43;;;;;;;;;;;24.00;48.00;;;;;;1596008;73;725;-66
2022/09/18 05:38:45;;;;;;;;;;;24.00;48.10;;;;;;1567953;74;1211;-67
2022/09/18 05:40:51;;;;;;;;;;;24.00;48.10;;;;;;1598790;73;803;-67
2022/09/18 05:42:55;;;;;;;;;;;24.00;48.20;;;;;;1595685;73;1236;-66
2022/09/18 05:44:54;;;;;;;;;;;24.00;48.20;;;;;;1597321;73;1618;-66
2022/09/18 05:46:56;;;;;;;;;;;24.00;48.30;;;;;;1586959;73;744;-66
2022/09/18 05:48:58;;;;;;;;;;;24.00;48.30;;;;;;1596950;73;813;-67
2022/09/18 05:51:00;;;;;;;;;;;24.00;48.40;;;;;;1599079;73;1930;-66
2022/09/18 05:53:03;;;;;;;;;;;23.90;48.40;;;;;;1592337;73;705;-66
2022/09/18 05:55:05;;;;;;;;;;;23.90;48.40;;;;;;1592207;72;1187;-66
2022/09/18 05:57:07;;;;;;;;;;;23.90;48.40;;;;;;1596133;73;709;-66
2022/09/18 05:59:09;;;;;;;;;;;23.90;48.50;;;;;;1603050;73;1526;-67
2022/09/18 06:01:13;;;;;;;;;;;23.90;48.50;;;;;;1603020;73;781;-67
2022/09/18 06:03:15;;;;;;;;;;;23.90;48.50;;;;;;1596253;73;767;-69
2022/09/18 06:05:17;;;;;;;;;;;23.90;48.60;;;;;;1592201;73;1128;-66
2022/09/18 06:07:19;;;;;;;;;;;23.90;48.60;;;;;;1595321;73;773;-66
2022/09/18 06:09:21;;;;;;;;;;;23.90;48.70;;;;;;1597894;73;744;-67
2022/09/18 06:11:22;;;;;;;;;;;23.90;48.70;;;;;;1598507;73;1915;-66
2022/09/18 06:13:24;;;;;;;;;;;23.90;48.80;;;;;;1599823;73;1495;-66
2022/09/18 06:15:26;;;;;;;;;;;23.90;48.80;;;;;;1584365;73;1102;-66
2022/09/18 06:17:28;;;;;;;;;;;23.90;48.80;;;;;;1599111;73;539;-66
2022/09/18 06:19:30;;;;;;;;;;;23.90;48.90;;;;;;1596987;73;786;-65
2022/09/18 06:21:32;;;;;;;;;;;23.90;48.90;;;;;;1595381;73;1044;-66
2022/09/18 06:23:34;;;;;;;;;;;23.80;48.80;;;;;;1594506;73;815;-66
2022/09/18 06:25:36;;;;;;;;;;;23.90;48.90;;;;;;1588406;73;1070;-66
2022/09/18 06:27:38;;;;;;;;;;;23.80;48.80;;;;;;1589711;73;1525;-66
2022/09/18 06:29:40;;;;;;;;;;;23.90;48.90;;;;;;1581285;73;720;-65
2022/09/18 06:31:42;;;;;;;;;;;23.90;48.90;;;;;;1594792;73;1933;-66
2022/09/18 06:33:44;;;;;;;;;;;23.80;48.90;;;;;;1598159;73;1098;-66
2022/09/18 06:35:47;;;;;;;;;;;23.80;48.90;;;;;;1597019;73;751;-68
2022/09/18 06:37:49;;;;;;;;;;;23.80;48.90;;;;;;1594228;73;1388;-66
2022/09/18 06:39:51;;;;;;;;;;;23.80;48.90;;;;;;1598430;73;894;-66
2022/09/18 06:41:53;;;;;;;;;;;23.70;49.00;;;;;;1594525;73;1539;-66
2022/09/18 06:43:55;;;;;;;;;;;23.80;48.90;;;;;;1595839;73;1238;-66
2022/09/18 06:45:57;;;;;;;;;;;23.90;49.00;;;;;;1595441;73;715;-66
2022/09/18 06:48:02;;;;;;;;;;;23.80;49.00;;;;;;1599258;73;803;-66
2022/09/18 06:50:05;;;;;;;;;;;23.90;49.10;;;;;;1596816;73;788;-67
2022/09/18 06:52:07;;;;;;;;;;;23.90;49.10;;;;;;1599502;73;1921;-66
2022/09/18 06:54:09;;;;;;;;;;;23.80;49.00;;;;;;1598306;73;1145;-67
2022/09/18 06:56:11;;;;;;;;;;;23.90;49.10;;;;;;1597740;73;1670;-66
2022/09/18 06:58:13;;;;;;;;;;;23.80;49.00;;;;;;1596067;73;733;-65
2022/09/18 07:00:14;;;;;;;;;;;23.80;49.00;;;;;;1599603;73;760;-69
2022/09/18 07:02:16;;;;;;;;;;;23.80;49.00;;;;;;1596914;73;805;-66
2022/09/18 07:04:18;;;;;;;;;;;23.80;49.00;;;;;;1596158;73;1138;-66
2022/09/18 07:06:20;;;;;;;;;;;23.80;49.00;;;;;;1597649;73;788;-66
2022/09/18 07:08:22;;;;;;;;;;;23.80;49.00;;;;;;1598847;73;809;-69
2022/09/18 07:10:24;;;;;;;;;;;23.90;49.10;;;;;;1593109;73;810;-66
2022/09/18 07:12:28;;;;;;;;;;;23.80;49.10;;;;;;1596783;73;1933;-66
2022/09/18 07:14:29;;;;;;;;;;;23.80;49.10;;;;;;1597522;73;1150;-66
2022/09/18 07:16:31;;;;;;;;;;;23.80;49.10;;;;;;1597879;73;743;-66
2022/09/18 07:18:33;;;;;;;;;;;23.90;49.20;;;;;;1597053;73;898;-67
2022/09/18 07:20:35;;;;;;;;;;;23.80;49.20;;;;;;1594570;73;568;-66
2022/09/18 07:22:37;;;;;;;;;;;23.90;49.30;;;;;;1597707;73;1618;-69
2022/09/18 07:24:39;;;;;;;;;;;23.80;49.20;;;;;;1596988;73;1153;-67
2022/09/18 07:26:41;;;;;;;;;;;23.90;49.40;;;;;;1597139;73;801;-69
2022/09/18 07:28:43;;;;;;;;;;;24.00;49.30;;;;;;1598724;73;663;-66
2022/09/18 07:30:45;;;;;;;;;;;24.00;49.00;;;;;;1599020;73;724;-67
2022/09/18 07:32:47;;;;;;;;;;;24.10;49.20;;;;;;1595225;73;1919;-64
2022/09/18 07:34:49;;;;;;;;;;;24.10;49.10;;;;;;1595693;73;1141;-65
2022/09/18 07:36:51;;;;;;;;;;;24.20;49.10;;;;;;1597286;73;1543;-67
2022/09/18 07:38:53;;;;;;;;;;;24.20;49.10;;;;;;1599050;73;894;-68
2022/09/18 07:40:55;;;;;;;;;;;24.30;49.10;;;;;;1593619;73;781;-68
2022/09/18 07:43:00;;;;;;;;;;;24.30;49.10;;;;;;1598110;73;859;-67
2022/09/18 07:45:02;;;;;;;;;;;24.30;49.10;;;;;;1597117;73;1232;-66
2022/09/18 07:47:04;;;;;;;;;;;24.40;49.10;;;;;;1596897;73;730;-66
2022/09/18 07:49:06;;;;;;;;;;;24.30;49.10;;;;;;1594402;73;697;-68
2022/09/18 07:51:09;;;;;;;;;;;24.40;49.00;;;;;;1596732;73;1907;-64
2022/09/18 07:53:10;;;;;;;;;;;24.30;49.00;;;;;;1600338;73;703;-65
2022/09/18 07:55:12;;;;;;;;;;;24.30;49.20;;;;;;1596449;73;1130;-67
2022/09/18 07:57:14;;;;;;;;;;;24.40;49.20;;;;;;1597184;73;936;-64
2022/09/18 07:59:16;;;;;;;;;;;24.40;49.00;;;;;;1592594;73;682;-65
2022/09/18 08:01:18;;;;;;;;;;;24.40;49.00;;;;;;1598623;73;737;-67
2022/09/18 08:03:20;;;;;;;;;;;24.40;48.90;;;;;;1595904;73;808;-65
2022/09/18 08:05:22;;;;;;;;;;;24.40;48.90;;;;;;1600134;73;1616;-65
2022/09/18 08:07:24;;;;;;;;;;;24.40;49.00;;;;;;1601175;73;806;-65
2022/09/18 08:09:25;;;;;;;;;;;24.40;48.90;;;;;;1597012;73;757;-63
2022/09/18 08:11:27;;;;;;;;;;;24.40;48.90;;;;;;1597042;73;1933;-66
2022/09/18 08:13:30;;;;;;;;;;;24.50;48.90;;;;;;1599908;73;775;-66
2022/09/18 08:15:33;;;;;;;;;;;24.50;48.70;;;;;;1599544;73;1102;-67
2022/09/18 08:17:34;;;;;;;;;;;24.40;48.80;;;;;;1603376;73;804;-70
2022/09/18 08:19:36;;;;;;;;;;;24.50;48.80;;;;;;1590690;73;1550;-73
2022/09/18 08:21:38;;;;;;;;;;;24.50;48.80;;;;;;1591832;73;732;-67
2022/09/18 08:23:40;;;;;;;;;;;24.50;48.80;;;;;;1596584;73;716;-69
2022/09/18 08:25:42;;;;;;;;;;;24.50;48.90;;;;;;1598125;73;1159;-65
2022/09/18 08:27:44;;;;;;;;;;;24.40;48.80;;;;;;1593786;73;647;-70
2022/09/18 08:29:46;;;;;;;;;;;24.50;48.90;;;;;;1592134;73;687;-68
2022/09/18 08:31:48;;;;;;;;;;;24.50;48.80;;;;;;1591084;73;1921;-67
2022/09/18 08:33:51;;;;;;;;;;;24.60;48.60;;;;;;1586957;73;1554;-69
2022/09/18 08:35:53;;;;;;;;;;;24.60;48.60;;;;;;1594405;73;812;-71
2022/09/18 08:37:56;;;;;;;;;;;24.60;48.70;;;;;;1598642;73;769;-69
2022/09/18 08:39:58;;;;;;;;;;;24.60;48.60;;;;;;1597603;73;772;-65
2022/09/18 08:42:02;;;;;;;;;;;24.60;48.60;;;;;;1595352;73;805;-65
2022/09/18 08:44:07;;;;;;;;;;;24.60;48.60;;;;;;1596009;73;1945;-65
2022/09/18 08:46:13;;;;;;;;;;;24.70;48.60;;;;;;1600014;73;793;-68
2022/09/18 08:48:16;;;;;;;;;;;24.70;48.60;;;;;;1597211;73;1565;-67
2022/09/18 08:50:26;;;;;;;;;;;24.60;48.60;;;;;;1592144;73;761;-66
2022/09/18 08:52:27;;;;;;;;;;;24.60;48.50;;;;;;1598145;73;1905;-65
2022/09/18 08:54:36;;;;;;;;;;;24.70;48.50;;;;;;1598413;73;1149;-65
2022/09/18 08:56:38;;;;;;;;;;;24.70;48.40;;;;;;1592797;73;1878;-67
2022/09/18 08:58:41;;;;;;;;;;;24.70;48.40;;;;;;1600083;73;778;-64
2022/09/18 09:00:50;;;;;;;;;;;24.70;48.40;;;;;;1598752;73;1947;-65
2022/09/18 09:02:53;;;;;;;;;;;24.70;48.40;;;;;;1592511;73;1833;-65
2022/09/18 09:04:56;;;;;;;;;;;24.70;48.40;;;;;;1585446;73;1145;-68
2022/09/18 09:07:03;;;;;;;;;;;24.70;48.40;;;;;;1605162;73;749;-65
2022/09/18 09:09:23;;;;;;;;;;;24.70;48.50;;;;;;1594875;73;653;-64
2022/09/18 09:11:36;;;;;;;;;;;24.50;48.70;;;;;;1590633;73;831;-66
2022/09/18 09:13:56;;;;;;;;;;;24.50;48.90;;;;;;1604548;73;754;-65
2022/09/18 09:16:12;;;;;;;;;;;24.50;49.00;;;;;;1589540;73;1553;-66
2022/09/18 09:18:18;;;;;;;;;;;24.40;49.00;;;;;;1600507;73;1804;-65
2022/09/18 09:20:21;;;;;;;;;;;24.30;49.20;;;;;;1599297;73;674;-68
2022/09/18 09:22:25;;;;;;;;;;;24.40;49.20;;;;;;1608132;73;746;-69
2022/09/18 09:24:32;;;;;;;;;;;24.40;49.20;;;;;;1600527;73;2040;-64
2022/09/18 09:26:33;;;;;;;;;;;24.30;49.10;;;;;;1595777;73;832;-64
2022/09/18 09:28:40;;;;;;;;;;;24.30;49.10;;;;;;1615174;73;690;-65
2022/09/18 09:30:42;;;;;;;;;;;24.30;49.10;;;;;;1594879;72;2157;-64
2022/09/18 09:32:45;;;;;;;;;;;24.20;49.00;;;;;;1603414;73;1925;-65
2022/09/18 09:34:51;;;;;;;;;;;24.20;49.10;;;;;;1601375;73;1183;-65
2022/09/18 09:36:55;;;;;;;;;;;24.30;49.20;;;;;;1611471;73;1061;-66
2022/09/18 09:38:58;;;;;;;;;;;24.20;49.10;;;;;;1609001;73;720;-64
2022/09/18 09:41:02;;;;;;;;;;;24.10;49.10;;;;;;1604953;73;813;-64
2022/09/18 09:43:05;;;;;;;;;;;24.10;49.20;;;;;;1607072;73;1869;-68
2022/09/18 09:45:11;;;;;;;;;;;24.20;49.20;;;;;;1605923;71;1656;-65
2022/09/18 09:47:14;;;;;;;;;;;24.10;49.20;;;;;;1601294;73;762;-65
2022/09/18 09:49:27;;;;;;;;;;;24.10;49.20;;;;;;1603417;73;877;-67
2022/09/18 09:51:43;;;;;;;;;;;24.10;49.20;;;;;;1600740;73;809;-65
2022/09/18 09:53:44;;;;;;;;;;;24.00;49.00;;;;;;1536639;73;1180;-67
2022/09/18 09:56:00;;;;;;;;;;;24.10;49.20;;;;;;1612334;73;736;-67
2022/09/18 09:58:06;;;;;;;;;;;24.00;49.10;;;;;;1591240;72;1500;-65
2022/09/18 10:00:16;;;;;;;;;;;24.10;49.20;;;;;;1607898;73;831;-64
2022/09/18 10:02:20;;;;;;;;;;;24.10;49.20;;;;;;1599403;73;741;-65
2022/09/18 10:04:23;;;;;;;;;;;24.10;49.20;;;;;;1599171;73;1933;-65
2022/09/18 10:06:30;;;;;;;;;;;24.00;49.10;;;;;;1602602;73;769;-64
2022/09/18 10:08:39;;;;;;;;;;;24.10;49.30;;;;;;1609287;73;840;-63
2022/09/18 10:10:49;;;;;;;;;;;24.00;49.10;;;;;;1605897;73;721;-64
2022/09/18 10:12:52;;;;;;;;;;;24.00;49.10;;;;;;1596342;73;1936;-63
2022/09/18 10:14:54;;;;;;;;;;;24.00;49.10;;;;;;1604557;73;1153;-64
2022/09/18 10:16:56;;;;;;;;;;;24.00;49.20;;;;;;1592447;73;737;-64
2022/09/18 10:18:58;;;;;;;;;;;24.00;49.20;;;;;;1608085;73;718;-65
2022/09/18 10:21:04;;;;;;;;;;;24.00;49.10;;;;;;1584514;74;783;-64
2022/09/18 10:23:07;;;;;;;;;;;24.10;49.30;;;;;;1600947;73;1148;-64
2022/09/18 10:25:30;;;;;;;;;;;24.10;49.30;;;;;;1607212;73;1714;-64
2022/09/18 10:27:32;;;;;;;;;;;24.20;49.20;;;;;;1597423;73;1014;-65
2022/09/18 10:29:33;;;;;;;;;;;24.20;49.00;;;;;;1602646;73;641;-66
2022/09/18 10:31:47;;;;;;;;;;;24.20;48.90;;;;;;1608317;73;738;-67
2022/09/18 10:33:51;;;;;;;;;;;24.30;48.90;;;;;;1611693;72;1901;-63
2022/09/18 10:35:53;;;;;;;;;;;24.40;48.60;;;;;;1609418;73;787;-63
2022/09/18 10:37:55;;;;;;;;;;;24.40;48.60;;;;;;1613188;73;822;-61
2022/09/18 10:39:58;;;;;;;;;;;24.40;48.50;;;;;;1608358;73;1458;-62
2022/09/18 10:42:03;;;;;;;;;;;24.40;48.30;;;;;;1626703;73;756;-66
2022/09/18 10:44:12;;;;;;;;;;;24.50;48.10;;;;;;1597128;71;1226;-65
2022/09/18 10:46:14;;;;;;;;;;;24.60;47.80;;;;;;1613030;73;729;-63
2022/09/18 10:48:20;;;;;;;;;;;24.80;47.70;;;;;;1598322;73;794;-63
2022/09/18 10:50:22;;;;;;;;;;;24.70;47.50;;;;;;1604769;73;2495;-64
2022/09/18 10:52:28;;;;;;;;;;;24.80;47.40;;;;;;1608996;73;1948;-64
2022/09/18 10:54:31;;;;;;;;;;;24.80;47.30;;;;;;1598379;73;1594;-63
2022/09/18 10:56:33;;;;;;;;;;;24.90;47.30;;;;;;1619458;73;763;-63
2022/09/18 10:58:35;;;;;;;;;;;24.90;47.10;;;;;;1608545;73;788;-64
2022/09/18 11:00:38;;;;;;;;;;;24.90;47.10;;;;;;1599206;73;722;-63
2022/09/18 11:02:41;;;;;;;;;;;24.90;47.20;;;;;;1602996;73;783;-64
2022/09/18 11:04:45;;;;;;;;;;;24.90;47.20;;;;;;1579046;74;1272;-63
2022/09/18 11:06:47;;;;;;;;;;;24.80;47.10;;;;;;1617675;73;926;-63
2022/09/18 11:08:49;;;;;;;;;;;24.90;47.20;;;;;;1606533;73;1619;-64
2022/09/18 11:10:54;;;;;;;;;;;24.80;47.20;;;;;;1601970;73;739;-63
2022/09/18 11:12:57;;;;;;;;;;;24.80;47.20;;;;;;1609031;73;1909;-63
2022/09/18 11:15:06;;;;;;;;;;;24.80;47.10;;;;;;1615584;73;1177;-67
2022/09/18 11:17:10;;;;;;;;;;;24.80;47.20;;;;;;1607108;73;705;-64
2022/09/18 11:19:13;;;;;;;;;;;24.80;47.30;;;;;;1602407;73;1924;-64
2022/09/18 11:21:15;;;;;;;;;;;24.70;47.30;;;;;;1608253;73;754;-68
2022/09/18 11:23:30;;;;;;;;;;;24.70;47.40;;;;;;1609348;73;1536;-64
2022/09/18 11:25:32;;;;;;;;;;;24.60;47.70;;;;;;1596069;70;2085;-70
2022/09/18 11:27:52;;;;;;;;;;;24.60;48.00;;;;;;1594172;72;729;-72
2022/09/18 11:29:54;;;;;;;;;;;24.50;48.20;;;;;;1594821;73;767;-72
2022/09/18 11:31:57;;;;;;;;;;;24.50;48.10;;;;;;1567019;74;1149;-69
2022/09/18 11:33:59;;;;;;;;;;;24.70;48.10;;;;;;1595937;73;1930;-71
2022/09/18 11:36:03;;;;;;;;;;;24.60;47.80;;;;;;1573846;74;1612;-71
2022/09/18 11:38:06;;;;;;;;;;;24.70;47.90;;;;;;1573073;74;719;-70
2022/09/18 11:40:10;;;;;;;;;;;24.80;47.80;;;;;;1567007;74;670;-71
2022/09/18 11:42:12;;;;;;;;;;;24.80;47.60;;;;;;1576497;74;1701;-72
2022/09/18 11:44:15;;;;;;;;;;;24.80;47.60;;;;;;1567719;74;1195;-71
2022/09/18 11:46:25;;;;;;;;;;;24.80;47.60;;;;;;1565168;74;1798;-71
2022/09/18 11:48:31;;;;;;;;;;;24.90;47.50;;;;;;1569901;74;1200;-71
2022/09/18 11:50:34;;;;;;;;;;;25.00;47.30;;;;;;1553531;74;1633;-71
2022/09/18 11:52:40;;;;;;;;;;;24.90;47.40;;;;;;1574302;74;1925;-72
2022/09/18 11:54:45;;;;;;;;;;;24.90;47.30;;;;;;1579455;73;1153;-72
2022/09/18 11:56:48;;;;;;;;;;;24.80;47.40;;;;;;1575616;74;777;-68
2022/09/18 11:59:01;;;;;;;;;;;24.80;47.70;;;;;;1570911;74;678;-71
2022/09/18 12:01:04;;;;;;;;;;;24.60;47.80;;;;;;1565007;74;1075;-72
2022/09/18 12:03:26;;;;;;;;;;;24.60;48.30;;;;;;1579620;74;775;-71
2022/09/18 12:05:29;;;;;;;;;;;24.50;48.70;;;;;;1586152;73;1809;-71
2022/09/18 12:07:48;;;;;;;;;;;24.40;49.00;;;;;;1582610;74;759;-71
2022/09/18 12:09:54;;;;;;;;;;;24.40;49.30;;;;;;1577621;74;696;-71
2022/09/18 12:11:58;;;;;;;;;;;24.30;49.60;;;;;;1573949;74;841;-71
2022/09/18 12:14:05;;;;;;;;;;;24.20;49.70;;;;;;1574321;74;1899;-70
2022/09/18 12:16:12;;;;;;;;;;;24.20;49.70;;;;;;1573909;74;778;-71